Time;durP1;ratioP1;P1;durP2;ratioP2;P2;SDS_P1;SDS_P2;PMS_P1;PMS_P2;Temp;Humidity;BMP_temperature;BMP_pressure;BME280_temperature;BME280_humidity;BME280_pressure;Samples;Min_cycle;Max_cycle;Signal;HPM_P1;HPM_P2
2020/12/26 00:00:31;;;;;;;6.28;1.80;;;;;;;1.38;81.94;101444.16;5010415;28;20042;-57
2020/12/26 00:02:58;;;;;;;4.13;1.80;;;;;;;1.32;81.74;101441.63;4989916;28;20165;-52
2020/12/26 00:05:24;;;;;;;4.55;1.88;;;;;;;1.56;81.96;101435.38;5008270;28;20100;-54
2020/12/26 00:07:54;;;;;;;6.43;1.70;;;;;;;1.56;81.22;101436.22;5008073;28;20050;-53
2020/12/26 00:10:20;;;;;;;11.13;2.72;;;;;;;1.42;80.96;101436.34;5008764;28;20045;-57
2020/12/26 00:12:48;;;;;;;9.80;1.83;;;;;;;1.30;81.21;101435.56;5010440;28;20604;-56
2020/12/26 00:15:15;;;;;;;5.50;2.03;;;;;;;1.27;81.62;101441.66;5007153;28;20494;-53
2020/12/26 00:17:41;;;;;;;5.03;1.70;;;;;;;1.31;81.24;101433.00;5008277;28;20049;-55
2020/12/26 00:20:08;;;;;;;8.52;1.60;;;;;;;1.19;81.85;101426.16;5006888;28;20131;-56
2020/12/26 00:22:35;;;;;;;9.77;2.90;;;;;;;0.96;82.72;101426.31;5007918;28;20054;-51
2020/12/26 00:25:02;;;;;;;3.30;1.65;;;;;;;0.95;82.88;101432.38;5007977;28;20514;-56
2020/12/26 00:27:29;;;;;;;12.13;2.58;;;;;;;1.27;81.92;101429.56;5007959;28;20137;-53
2020/12/26 00:29:56;;;;;;;5.13;2.22;;;;;;;1.07;82.55;101434.00;5006475;28;20064;-52
2020/12/26 00:32:23;;;;;;;6.07;2.13;;;;;;;1.16;82.37;101422.72;5008013;28;20286;-52
2020/12/26 00:34:49;;;;;;;6.32;2.03;;;;;;;1.02;82.07;101428.00;5007693;28;20522;-54
2020/12/26 00:37:17;;;;;;;3.65;1.67;;;;;;;1.00;82.55;101430.63;5008029;28;20057;-56
2020/12/26 00:39:44;;;;;;;6.07;1.90;;;;;;;1.20;82.59;101427.88;5006834;28;20054;-57
2020/12/26 00:42:11;;;;;;;6.22;2.70;;;;;;;0.92;82.64;101436.72;5007847;28;20046;-56
2020/12/26 00:44:37;;;;;;;6.22;1.92;;;;;;;0.83;83.15;101437.63;5007015;28;20136;-56
2020/12/26 00:47:04;;;;;;;10.70;1.98;;;;;;;1.14;82.64;101440.03;4990716;28;20054;-56
2020/12/26 00:49:38;;;;;;;4.38;2.10;;;;;;;1.04;82.39;101447.00;5007620;28;20141;-53
2020/12/26 00:52:05;;;;;;;5.80;1.98;;;;;;;1.16;82.60;101440.88;4990441;28;20403;-58
2020/12/26 00:54:32;;;;;;;4.80;1.80;;;;;;;1.24;82.11;101442.53;5007871;28;20053;-53
2020/12/26 00:56:58;;;;;;;8.38;3.15;;;;;;;1.07;82.75;101436.59;5007976;28;20265;-54
2020/12/26 00:59:25;;;;;;;6.43;2.00;;;;;;;1.01;82.75;101444.44;4989608;28;20045;-56
2020/12/26 01:01:53;;;;;;;7.55;2.45;;;;;;;1.06;82.90;101445.25;5007989;28;20054;-53
2020/12/26 01:04:20;;;;;;;7.63;2.10;;;;;;;0.80;83.55;101444.56;5007606;28;20097;-56
2020/12/26 01:06:56;;;;;;;9.43;2.55;;;;;;;0.93;82.99;101441.88;5006954;28;20072;-59
2020/12/26 01:09:24;;;;;;;3.75;1.77;;;;;;;1.01;82.99;101442.69;5007428;28;20054;-58
2020/12/26 01:11:51;;;;;;;6.00;1.95;;;;;;;1.19;82.93;101451.22;4991026;28;20061;-58
2020/12/26 01:14:18;;;;;;;7.43;3.00;;;;;;;1.20;81.73;101448.63;5010630;28;20060;-57
2020/12/26 01:16:51;;;;;;;4.95;2.03;;;;;;;1.26;82.85;101451.19;5007463;28;20066;-53
2020/12/26 01:19:18;;;;;;;7.75;2.03;;;;;;;1.19;81.63;101452.09;5008241;28;20061;-53
2020/12/26 01:21:52;;;;;;;3.92;1.85;;;;;;;1.12;82.31;101458.16;5006910;28;20050;-55
2020/12/26 01:24:19;;;;;;;8.60;1.75;;;;;;;1.04;82.72;101456.50;5007907;28;20386;-57
2020/12/26 01:26:49;;;;;;;10.75;3.47;;;;;;;1.07;81.84;101453.91;5007953;28;20240;-54
2020/12/26 01:29:16;;;;;;;4.78;2.08;;;;;;;1.02;82.47;101459.97;4987097;28;20046;-56
2020/12/26 01:31:43;;;;;;;7.90;2.50;;;;;;;0.81;83.58;101467.00;5007276;28;20038;-56
2020/12/26 01:34:09;;;;;;;9.40;1.90;;;;;;;0.99;83.17;101465.19;4989461;28;20353;-56
2020/12/26 01:36:38;;;;;;;15.50;2.53;;;;;;;1.08;82.50;101472.06;5006154;28;20050;-52
2020/12/26 01:39:04;;;;;;;6.05;2.15;;;;;;;1.14;82.07;101469.41;5006818;28;20148;-55
2020/12/26 01:41:31;;;;;;;6.93;1.92;;;;;;;1.02;82.78;101465.16;5006811;28;20049;-57
2020/12/26 01:44:02;;;;;;;7.97;2.22;;;;;;;0.89;82.30;101468.69;5006814;28;20052;-57
2020/12/26 01:46:30;;;;;;;8.43;2.33;;;;;;;1.12;82.22;101467.69;5005918;28;20131;-56
2020/12/26 01:48:59;;;;;;;5.93;1.90;;;;;;;0.89;82.20;101473.88;5006675;28;20049;-54
2020/12/26 01:51:27;;;;;;;11.00;2.75;;;;;;;0.80;82.85;101473.91;4983282;28;20069;-56
2020/12/26 01:53:54;;;;;;;8.45;1.98;;;;;;;0.83;83.15;101476.50;4970229;28;20132;-51
2020/12/26 01:56:21;;;;;;;5.45;2.50;;;;;;;1.01;82.29;101473.81;5005605;28;20285;-57
2020/12/26 01:58:48;;;;;;;5.97;1.85;;;;;;;0.74;81.97;101463.59;5006558;28;20060;-53
2020/12/26 02:01:14;;;;;;;8.02;2.17;;;;;;;0.72;82.81;101467.91;5005104;28;20181;-52
2020/12/26 02:03:41;;;;;;;5.00;1.95;;;;;;;0.82;82.80;101464.44;5014170;28;20680;-53
2020/12/26 02:06:08;;;;;;;7.32;1.65;;;;;;;0.89;83.18;101468.69;5007011;28;20049;-53
2020/12/26 02:08:36;;;;;;;12.10;2.25;;;;;;;0.67;82.62;101467.94;5006213;28;20052;-52
2020/12/26 02:11:06;;;;;;;7.70;2.13;;;;;;;0.46;83.90;101463.72;4987530;23;20062;-60
2020/12/26 02:13:34;;;;;;;6.00;2.53;;;;;;;0.78;82.63;101469.63;4969241;28;20054;-57
2020/12/26 02:16:13;;;;;;;6.50;2.20;;;;;;;0.65;83.00;101469.69;4980131;28;20277;-60
2020/12/26 02:18:40;;;;;;;6.22;2.10;;;;;;;0.73;82.73;101467.06;4984226;28;20054;-60
2020/12/26 02:21:07;;;;;;;9.60;2.13;;;;;;;0.77;82.48;101468.78;4982975;28;20138;-61
2020/12/26 02:23:42;;;;;;;5.50;1.85;;;;;;;0.86;82.41;101467.88;4981843;28;20055;-61
2020/12/26 02:26:09;;;;;;;8.63;2.22;;;;;;;0.76;81.72;101465.28;4966339;28;20458;-57
2020/12/26 02:28:36;;;;;;;6.03;1.35;;;;;;;0.79;82.84;101466.16;4984666;28;20134;-60
2020/12/26 02:31:04;;;;;;;4.80;2.08;;;;;;;1.01;82.34;101460.00;4987567;28;20073;-59
2020/12/26 02:33:31;;;;;;;8.05;1.92;;;;;;;0.93;82.23;101453.97;4983301;28;20138;-58
2020/12/26 02:35:57;;;;;;;7.55;2.38;;;;;;;0.86;82.49;101450.59;4988357;28;20058;-60
2020/12/26 02:38:24;;;;;;;4.78;2.00;;;;;;;0.68;82.68;101448.09;4981331;28;20073;-58
2020/12/26 02:40:51;;;;;;;10.02;2.53;;;;;;;0.95;82.99;101449.66;4986565;28;20137;-60
2020/12/26 02:43:20;;;;;;;6.80;2.10;;;;;;;1.03;81.38;101453.03;4981692;28;20066;-60
2020/12/26 02:45:48;;;;;;;4.45;1.77;;;;;;;0.73;81.31;101449.78;4969531;28;20061;-61
2020/12/26 02:48:15;;;;;;;4.72;1.88;;;;;;;0.88;81.23;101448.81;4967490;28;20069;-57
2020/12/26 02:50:53;;;;;;;4.85;1.60;;;;;;;0.77;81.40;101450.63;4970030;28;20054;-56
2020/12/26 02:53:20;;;;;;;6.97;2.05;;;;;;;0.78;81.30;101454.94;4981664;28;20547;-60
2020/12/26 02:55:47;;;;;;;7.82;2.22;;;;;;;0.94;81.31;101453.09;4986265;28;20054;-60
2020/12/26 02:58:14;;;;;;;6.95;2.20;;;;;;;0.83;82.00;101455.78;4981761;28;20046;-61
2020/12/26 03:00:41;;;;;;;5.07;1.65;;;;;;;0.91;81.25;101461.78;4985466;28;20129;-59
2020/12/26 03:03:07;;;;;;;5.25;2.15;;;;;;;1.01;81.10;101457.41;4965474;28;20058;-60
2020/12/26 03:05:34;;;;;;;5.38;2.00;;;;;;;1.08;80.71;101451.31;4983889;28;20058;-58
2020/12/26 03:08:01;;;;;;;7.93;2.50;;;;;;;1.16;80.20;101459.03;4977778;28;20475;-58
2020/12/26 03:10:28;;;;;;;6.53;2.03;;;;;;;1.10;79.98;101456.47;4987329;28;20066;-59
2020/12/26 03:12:55;;;;;;;3.88;1.63;;;;;;;1.07;79.93;101459.94;4971780;28;20054;-60
2020/12/26 03:15:22;;;;;;;6.15;2.00;;;;;;;0.78;80.58;101452.34;4987340;28;20589;-61
2020/12/26 03:17:49;;;;;;;5.75;1.90;;;;;;;0.66;81.00;101455.84;4990772;28;20499;-61
2020/12/26 03:20:16;;;;;;;4.53;1.60;;;;;;;0.62;80.65;101455.88;4968152;28;20571;-62
2020/12/26 03:22:42;;;;;;;4.88;1.92;;;;;;;0.55;81.91;101460.25;4974720;28;20080;-59
2020/12/26 03:25:09;;;;;;;9.68;3.50;;;;;;;0.75;81.22;101462.72;4987986;28;20586;-62
2020/12/26 03:27:37;;;;;;;7.00;1.40;;;;;;;0.59;81.25;101461.94;4988901;28;20058;-59
2020/12/26 03:30:05;;;;;;;4.47;1.25;;;;;;;0.41;81.73;101460.28;4983964;28;20084;-59
2020/12/26 03:32:32;;;;;;;5.05;1.35;;;;;;;0.47;81.12;101470.63;4956755;28;20053;-58
2020/12/26 03:34:58;;;;;;;6.68;1.67;;;;;;;0.62;81.27;101474.00;4989425;28;20054;-59
2020/12/26 03:37:25;;;;;;;6.03;1.70;;;;;;;0.67;80.59;101477.44;4990075;28;20093;-58
2020/12/26 03:39:52;;;;;;;5.43;1.60;;;;;;;0.76;80.65;101478.25;4983724;28;20054;-60
2020/12/26 03:42:19;;;;;;;4.88;1.45;;;;;;;0.90;80.42;101478.22;4990174;28;20045;-57
2020/12/26 03:44:45;;;;;;;7.32;1.67;;;;;;;0.97;79.36;101484.22;4989221;28;20056;-60
2020/12/26 03:47:12;;;;;;;8.57;1.33;;;;;;;0.62;79.94;101476.59;4978768;28;20046;-55
2020/12/26 03:49:39;;;;;;;6.30;1.88;;;;;;;0.66;80.62;101492.13;4983058;28;20046;-58
2020/12/26 03:52:05;;;;;;;8.38;2.65;;;;;;;0.62;80.58;101489.56;4989571;28;20046;-60
2020/12/26 03:54:32;;;;;;;4.70;1.40;;;;;;;0.71;79.56;101492.09;4983983;28;20541;-61
2020/12/26 03:56:59;;;;;;;6.05;1.67;;;;;;;0.68;79.60;101495.59;4981860;28;20062;-61
2020/12/26 03:59:26;;;;;;;3.72;1.33;;;;;;;0.68;79.99;101493.00;4963076;28;20069;-60
2020/12/26 04:01:52;;;;;;;8.75;2.20;;;;;;;0.56;80.05;101493.03;4988977;28;20047;-60
2020/12/26 04:04:19;;;;;;;5.70;1.27;;;;;;;0.66;81.20;101499.91;4983411;28;20050;-58
2020/12/26 04:06:46;;;;;;;3.15;1.48;;;;;;;0.70;79.21;101508.53;4989262;28;20170;-61
2020/12/26 04:09:13;;;;;;;3.58;1.30;;;;;;;0.69;79.79;101507.69;4984718;28;20058;-59
2020/12/26 04:11:40;;;;;;;5.35;1.77;;;;;;;0.75;79.33;101511.97;4990211;28;20530;-60
2020/12/26 04:14:07;;;;;;;5.20;1.35;;;;;;;0.62;79.25;101516.31;4991125;28;20677;-60
2020/12/26 04:16:33;;;;;;;2.42;1.20;;;;;;;0.74;78.65;101512.84;4989911;28;20054;-58
2020/12/26 04:19:00;;;;;;;3.63;1.30;;;;;;;0.60;80.14;101519.81;4986428;28;20080;-55
2020/12/26 04:21:27;;;;;;;4.05;1.80;;;;;;;0.82;79.52;101518.00;4987138;28;20050;-57
2020/12/26 04:23:54;;;;;;;8.10;1.50;;;;;;;0.47;79.55;101522.44;4989347;28;20474;-56
2020/12/26 04:26:21;;;;;;;5.93;1.83;;;;;;;0.47;80.40;101509.47;4991464;28;20494;-57
2020/12/26 04:28:49;;;;;;;4.63;1.48;;;;;;;0.69;79.89;101505.09;4989173;28;20055;-58
2020/12/26 04:31:16;;;;;;;4.18;1.55;;;;;;;0.75;79.87;101507.63;4990424;28;20455;-54
2020/12/26 04:33:43;;;;;;;10.43;1.67;;;;;;;0.60;79.36;101506.84;4975425;28;20062;-57
2020/12/26 04:36:10;;;;;;;4.18;1.65;;;;;;;0.65;79.97;101499.91;4982050;28;20069;-56
2020/12/26 04:38:36;;;;;;;2.85;1.15;;;;;;;0.72;79.28;101499.91;4983543;28;20546;-60
2020/12/26 04:41:07;;;;;;;6.55;1.20;;;;;;;0.79;78.91;101497.25;4973116;28;20062;-61
2020/12/26 04:43:34;;;;;;;8.50;1.30;;;;;;;0.78;79.77;101490.38;4983262;28;20039;-59
2020/12/26 04:46:05;;;;;;;6.78;1.77;;;;;;;0.72;79.07;101492.13;4984916;28;20046;-61
2020/12/26 04:48:33;;;;;;;5.40;1.48;;;;;;;0.79;79.46;101490.34;4983020;28;20110;-62
2020/12/26 04:51:03;;;;;;;5.68;1.13;;;;;;;1.06;78.29;101497.13;4982068;28;20081;-56
2020/12/26 04:53:33;;;;;;;3.20;1.40;;;;;;;0.84;77.79;101495.50;4984762;28;20042;-60
2020/12/26 04:56:02;;;;;;;5.32;2.38;;;;;;;0.83;78.52;101502.44;4982681;28;20505;-58
2020/12/26 04:58:29;;;;;;;8.73;1.98;;;;;;;0.82;78.01;101492.09;4988730;28;20059;-53
2020/12/26 05:00:56;;;;;;;4.10;1.42;;;;;;;0.77;78.25;101492.09;4989502;28;20046;-61
2020/12/26 05:03:27;;;;;;;5.97;1.10;;;;;;;0.84;78.22;101490.31;4980376;28;20054;-62
2020/12/26 05:06:05;;;;;;;7.22;1.58;;;;;;;0.73;78.38;101487.81;4990418;28;20062;-60
2020/12/26 05:08:32;;;;;;;5.97;1.40;;;;;;;0.89;77.62;101479.06;4987750;28;20073;-61
2020/12/26 05:11:00;;;;;;;2.95;0.93;;;;;;;0.94;77.27;101479.03;4981158;28;20054;-60
2020/12/26 05:13:27;;;;;;;6.03;1.40;;;;;;;0.80;78.43;101476.50;4974569;28;20061;-58
2020/12/26 05:15:54;;;;;;;3.13;1.58;;;;;;;0.94;78.43;101476.44;4989568;28;20101;-61
2020/12/26 05:18:21;;;;;;;2.28;1.20;;;;;;;1.00;77.68;101482.47;4983678;28;20483;-59
2020/12/26 05:20:48;;;;;;;5.30;1.73;;;;;;;0.76;77.48;101477.41;4974496;28;20046;-58
2020/12/26 05:23:16;;;;;;;6.38;1.60;;;;;;;0.70;78.26;101483.47;4984976;28;20527;-59
2020/12/26 05:25:48;;;;;;;2.63;1.40;;;;;;;0.79;78.72;101477.38;4987734;28;20065;-60
2020/12/26 05:28:19;;;;;;;3.30;1.40;;;;;;;1.04;78.61;101479.84;4983969;28;20514;-60
2020/12/26 05:30:48;;;;;;;7.80;1.08;;;;;;;0.86;78.28;101484.28;4981873;28;20054;-60
2020/12/26 05:33:14;;;;;;;9.43;2.05;;;;;;;0.99;78.08;101485.94;4983662;28;20331;-59
2020/12/26 05:35:44;;;;;;;6.55;1.45;;;;;;;0.97;78.33;101490.25;4987843;28;20046;-59
2020/12/26 05:38:22;;;;;;;3.22;1.38;;;;;;;0.78;78.38;101490.38;4983583;28;20055;-61
2020/12/26 05:40:57;;;;;;;3.78;1.10;;;;;;;0.66;78.95;101475.72;4988133;28;20050;-60
2020/12/26 05:43:32;;;;;;;3.75;1.25;;;;;;;0.57;79.55;101478.34;4973556;28;20073;-58
2020/12/26 05:45:59;;;;;;;4.93;1.27;;;;;;;0.37;80.06;101481.91;4983897;28;20078;-59
2020/12/26 05:48:27;;;;;;;5.28;1.55;;;;;;;0.30;80.58;101481.91;4981785;28;20470;-59
2020/12/26 05:50:57;;;;;;;4.82;1.35;;;;;;;0.13;80.42;101480.22;4989046;28;20065;-59
2020/12/26 05:53:25;;;;;;;3.75;1.35;;;;;;;0.03;80.99;101488.00;4982514;28;20058;-59
2020/12/26 05:55:51;;;;;;;2.55;1.08;;;;;;;-0.14;81.53;101482.84;4988148;28;20051;-59
2020/12/26 05:58:20;;;;;;;8.25;1.73;;;;;;;0.05;80.39;101486.31;4965991;28;20472;-58
2020/12/26 06:00:46;;;;;;;8.90;1.52;;;;;;;-0.02;80.90;101483.69;4993717;28;20105;-57
2020/12/26 06:03:21;;;;;;;3.35;1.50;;;;;;;-0.28;81.28;101488.91;4988048;28;20046;-61
2020/12/26 06:05:48;;;;;;;7.00;1.60;;;;;;;-0.22;81.98;101489.78;4988434;28;20542;-59
2020/12/26 06:08:16;;;;;;;2.83;1.35;;;;;;;-0.16;81.70;101484.59;4984546;28;20051;-58
2020/12/26 06:10:54;;;;;;;2.05;1.30;;;;;;;-0.22;81.73;101482.88;4985252;28;20042;-61
2020/12/26 06:13:23;;;;;;;6.15;1.65;;;;;;;-0.17;82.30;101481.16;4985256;28;20954;-59
2020/12/26 06:15:55;;;;;;;5.72;1.67;;;;;;;-0.40;83.20;101482.91;4971139;28;20054;-62
2020/12/26 06:18:22;;;;;;;4.90;1.60;;;;;;;-0.31;83.67;101488.94;4982104;28;20487;-58
2020/12/26 06:20:51;;;;;;;8.90;1.55;;;;;;;-0.38;84.27;101484.59;4986054;28;20058;-61
2020/12/26 06:23:23;;;;;;;4.88;2.80;;;;;;;-0.64;84.97;101488.91;4981209;28;20047;-61
2020/12/26 06:25:51;;;;;;;4.80;2.20;;;;;;;-0.65;85.68;101497.53;4987569;28;20141;-63
2020/12/26 06:28:25;;;;;;;5.70;2.40;;;;;;;-0.60;85.70;101498.38;4982053;28;20085;-60
2020/12/26 06:30:55;;;;;;;4.95;2.75;;;;;;;-0.55;85.54;101494.06;4987772;28;20089;-62
2020/12/26 06:33:26;;;;;;;4.22;2.47;;;;;;;-0.83;87.16;101503.53;4982849;28;20047;-60
2020/12/26 06:35:55;;;;;;;6.35;2.58;;;;;;;-0.69;87.13;101507.00;4972019;28;20050;-59
2020/12/26 06:38:28;;;;;;;6.40;3.80;;;;;;;-0.51;87.05;101517.34;4957695;28;20590;-60
2020/12/26 06:40:56;;;;;;;16.88;3.90;;;;;;;-0.62;87.19;101513.91;4989081;28;20077;-61
2020/12/26 06:43:45;;;;;;;7.70;4.00;;;;;;;-0.48;88.52;101505.31;4973046;28;20065;-61
2020/12/26 06:46:14;;;;;;;9.23;4.40;;;;;;;-0.46;87.73;101513.91;4984726;28;20051;-60
2020/12/26 06:48:41;;;;;;;11.18;4.32;;;;;;;-0.31;88.13;101508.75;4986431;28;20164;-59
2020/12/26 06:51:28;;;;;;;13.63;5.13;;;;;;;-0.24;87.18;101509.59;4991345;28;20057;-58
2020/12/26 06:53:56;;;;;;;15.90;5.70;;;;;;;-0.34;87.73;101513.94;4985917;28;20074;-59
2020/12/26 06:56:31;;;;;;;11.73;5.85;;;;;;;-0.46;88.56;101508.75;4991365;28;20073;-59
2020/12/26 06:58:59;;;;;;;13.38;6.60;;;;;;;-0.58;89.34;101505.28;4990483;28;20133;-61
2020/12/26 07:01:26;;;;;;;12.27;7.65;;;;;;;-0.69;89.18;101507.00;4990995;28;20065;-56
2020/12/26 07:04:11;;;;;;;12.57;6.70;;;;;;;-0.89;90.83;101506.97;4988958;28;20051;-58
2020/12/26 07:06:39;;;;;;;15.93;7.00;;;;;;;-0.66;90.86;101514.75;4990124;28;20054;-61
2020/12/26 07:09:07;;;;;;;19.42;8.25;;;;;;;-0.33;88.57;101513.06;4984428;28;20054;-59
2020/12/26 07:11:43;;;;;;;14.07;6.57;;;;;;;-0.12;88.58;101507.88;4969731;28;20070;-60
2020/12/26 07:14:27;;;;;;;13.45;7.30;;;;;;;-0.37;88.89;101513.91;4983951;28;20690;-59
2020/12/26 07:16:55;;;;;;;11.77;7.03;;;;;;;-0.38;89.23;101515.66;4989617;28;20072;-59
2020/12/26 07:19:33;;;;;;;21.17;8.52;;;;;;;-0.12;88.21;101509.59;4977193;28;20519;-61
2020/12/26 07:22:14;;;;;;;16.10;8.23;;;;;;;-0.35;89.07;101507.03;4987159;28;20058;-58
2020/12/26 07:24:45;;;;;;;19.75;7.18;;;;;;;-0.19;88.73;101513.06;4986086;28;20050;-62
2020/12/26 07:27:23;;;;;;;15.63;8.15;;;;;;;-0.16;88.88;101519.09;4973044;28;20070;-59
2020/12/26 07:29:53;;;;;;;14.48;8.43;;;;;;;0.09;88.22;101519.06;4977485;28;20493;-60
2020/12/26 07:32:38;;;;;;;14.45;7.70;;;;;;;0.24;86.86;101519.91;4990249;28;20525;-59
2020/12/26 07:35:19;;;;;;;13.63;8.52;;;;;;;0.17;86.95;101522.50;4988498;28;20458;-60
2020/12/26 07:38:02;;;;;;;15.30;9.65;;;;;;;-0.02;87.56;101525.13;5000407;28;20050;-60
2020/12/26 07:40:37;;;;;;;19.10;9.95;;;;;;;-0.29;88.66;101535.47;4986668;28;20078;-59
2020/12/26 07:43:08;;;;;;;22.58;9.25;;;;;;;-0.26;89.03;101540.66;4998940;28;20517;-61
2020/12/26 07:45:38;;;;;;;20.08;8.98;;;;;;;0.05;89.85;101522.53;4974075;28;20058;-61
2020/12/26 07:48:05;;;;;;;18.58;9.05;;;;;;;0.39;87.33;101525.91;4987629;28;20587;-61
2020/12/26 07:50:35;;;;;;;18.02;8.85;;;;;;;0.24;87.28;101530.25;4987277;28;20430;-59
2020/12/26 07:53:06;;;;;;;14.02;8.77;;;;;;;0.17;87.44;101527.69;4983345;28;20138;-58
2020/12/26 07:55:34;;;;;;;20.00;9.57;;;;;;;-0.10;88.48;101525.97;4996039;28;20056;-59
2020/12/26 07:58:13;;;;;;;20.73;10.75;;;;;;;-0.23;89.44;101526.84;4991263;28;20050;-59
2020/12/26 08:00:44;;;;;;;17.30;9.10;;;;;;;0.05;87.90;101517.38;4990108;28;20571;-61
2020/12/26 08:03:13;;;;;;;21.30;10.77;;;;;;;0.04;88.42;101529.41;4975961;28;20051;-58
2020/12/26 08:05:46;;;;;;;22.27;12.13;;;;;;;-0.31;90.05;101538.06;4987765;28;20050;-60
2020/12/26 08:08:14;;;;;;;23.48;11.15;;;;;;;-0.21;90.16;101532.91;4977108;28;20058;-62
2020/12/26 08:10:41;;;;;;;25.27;12.02;;;;;;;-0.06;90.35;101531.16;4986350;23;20153;-59
2020/12/26 08:13:15;;;;;;;27.48;12.93;;;;;;;-0.16;89.94;101529.44;5001119;28;20050;-60
2020/12/26 08:15:42;;;;;;;29.63;12.10;;;;;;;-0.04;89.83;101528.59;5002270;28;20059;-60
2020/12/26 08:18:09;;;;;;;27.05;13.05;;;;;;;-0.11;90.02;101530.31;5002290;28;20058;-60
2020/12/26 08:20:36;;;;;;;23.90;12.90;;;;;;;-0.09;90.55;101532.88;5002882;28;20058;-58
2020/12/26 08:23:04;;;;;;;25.92;12.20;;;;;;;-0.09;90.16;101535.47;4995321;28;20141;-60
2020/12/26 08:25:31;;;;;;;33.78;12.88;;;;;;;0.01;90.23;101533.75;4988444;28;20068;-59
2020/12/26 08:27:57;;;;;;;28.60;11.60;;;;;;;0.24;90.10;101537.16;4990923;28;20305;-58
2020/12/26 08:30:29;;;;;;;22.63;12.38;;;;;;;0.39;88.34;101526.78;4978164;28;20085;-59
2020/12/26 08:33:12;;;;;;;21.73;10.70;;;;;;;0.38;87.99;101519.00;4995864;28;20053;-61
2020/12/26 08:35:45;;;;;;;25.33;12.07;;;;;;;0.19;89.24;101526.81;4993822;28;20089;-59
2020/12/26 08:38:18;;;;;;;28.80;12.23;;;;;;;0.17;89.60;101528.53;4992798;28;20237;-61
2020/12/26 08:40:53;;;;;;;28.92;12.35;;;;;;;0.04;90.20;101536.31;4976961;28;20058;-55
2020/12/26 08:43:19;;;;;;;21.88;11.52;;;;;;;0.03;90.35;101534.59;4994185;28;20539;-57
2020/12/26 08:45:46;;;;;;;24.60;11.52;;;;;;;-0.07;90.63;101539.78;4974354;28;20150;-60
2020/12/26 08:48:15;;;;;;;31.10;12.57;;;;;;;-0.02;90.08;101545.81;4995687;28;20069;-58
2020/12/26 08:50:42;;;;;;;30.33;12.48;;;;;;;0.18;89.65;101535.47;4996082;28;20043;-57
2020/12/26 08:53:10;;;;;;;25.50;13.27;;;;;;;0.28;89.74;101538.91;5000285;28;20050;-60
2020/12/26 08:55:46;;;;;;;27.83;12.55;;;;;;;0.14;89.96;101540.66;5000618;28;20639;-60
2020/12/26 08:58:25;;;;;;;29.23;12.07;;;;;;;0.18;90.01;101542.34;4994938;28;20084;-60
2020/12/26 09:01:02;;;;;;;22.52;11.82;;;;;;;0.44;89.32;101550.06;4992876;28;20069;-56
2020/12/26 09:03:31;;;;;;;29.75;12.43;;;;;;;0.12;89.78;101553.56;4974301;28;20081;-57
2020/12/26 09:06:00;;;;;;;25.48;12.57;;;;;;;0.28;89.47;101548.41;4963249;28;20050;-57
2020/12/26 09:08:33;;;;;;;30.77;12.20;;;;;;;0.37;88.60;101553.56;4996561;28;20060;-61
2020/12/26 09:11:09;;;;;;;25.55;12.32;;;;;;;0.33;89.34;101547.50;4996152;28;20058;-59
2020/12/26 09:13:47;;;;;;;23.85;12.98;;;;;;;0.60;88.40;101544.00;4997641;28;20050;-59
2020/12/26 09:16:14;;;;;;;23.67;11.30;;;;;;;0.36;88.82;101539.75;4981850;28;20046;-60
2020/12/26 09:18:47;;;;;;;28.05;12.77;;;;;;;0.36;89.37;101544.03;4989965;28;20056;-61
2020/12/26 09:21:27;;;;;;;24.30;12.90;;;;;;;0.54;88.78;101532.75;4995825;28;20064;-62
2020/12/26 09:23:56;;;;;;;26.00;13.07;;;;;;;0.78;88.28;101531.84;5000293;28;20046;-60
2020/12/26 09:26:25;;;;;;;22.17;12.05;;;;;;;0.92;87.47;101533.50;4991339;28;20045;-63
2020/12/26 09:28:59;;;;;;;22.40;13.13;;;;;;;1.00;86.80;101528.28;5000962;28;20050;-59
2020/12/26 09:31:36;;;;;;;28.27;13.05;;;;;;;0.92;86.73;101527.44;4993279;28;20062;-59
2020/12/26 09:34:19;;;;;;;25.75;13.63;;;;;;;0.86;86.61;101523.16;4998705;28;20054;-56
2020/12/26 09:36:47;;;;;;;23.70;11.68;;;;;;;0.90;87.11;101532.66;4989068;28;20050;-62
2020/12/26 09:39:14;;;;;;;28.30;13.15;;;;;;;1.04;85.66;101529.09;4991831;28;20057;-61
2020/12/26 09:41:48;;;;;;;20.05;12.20;;;;;;;1.12;85.42;101535.13;4979551;28;20053;-59
2020/12/26 09:44:15;;;;;;;23.55;12.00;;;;;;;1.37;85.11;101531.50;4970887;28;20452;-60
2020/12/26 09:46:43;;;;;;;28.65;12.02;;;;;;;1.54;83.96;101538.34;4991670;28;20057;-57
2020/12/26 09:49:10;;;;;;;23.25;12.98;;;;;;;1.52;83.43;101536.59;4994568;28;20543;-58
2020/12/26 09:51:37;;;;;;;25.38;12.70;;;;;;;1.62;82.69;101529.63;4993669;28;20086;-60
2020/12/26 09:54:04;;;;;;;23.05;11.45;;;;;;;1.78;82.67;101525.16;4995449;28;20069;-60
2020/12/26 09:56:31;;;;;;;19.50;12.05;;;;;;;1.52;83.19;101527.94;4977287;28;20094;-62
2020/12/26 09:58:57;;;;;;;24.58;12.65;;;;;;;1.58;82.93;101522.72;4996185;28;20093;-60
2020/12/26 10:01:25;;;;;;;23.20;12.15;;;;;;;1.49;83.16;101521.06;4996364;28;20518;-62
2020/12/26 10:03:52;;;;;;;22.75;12.20;;;;;;;1.81;82.36;101509.56;4990721;28;20072;-56
2020/12/26 10:06:19;;;;;;;25.00;11.13;;;;;;;1.86;81.36;101512.97;4992897;28;20582;-59
2020/12/26 10:08:48;;;;;;;18.13;11.00;;;;;;;1.65;81.50;101508.81;4990914;28;20054;-59
2020/12/26 10:11:16;;;;;;;30.55;11.80;;;;;;;1.70;82.08;101514.81;4975456;28;20141;-60
2020/12/26 10:13:44;;;;;;;19.08;11.20;;;;;;;1.92;80.99;101507.72;4999049;28;20160;-59
2020/12/26 10:16:10;;;;;;;22.75;12.02;;;;;;;1.88;81.06;101510.34;4995474;28;20050;-57
2020/12/26 10:18:38;;;;;;;19.23;11.55;;;;;;;1.95;80.51;101509.44;4992915;28;20169;-63
2020/12/26 10:21:05;;;;;;;20.63;11.00;;;;;;;2.19;79.93;101516.97;4980214;28;20586;-63
2020/12/26 10:23:32;;;;;;;27.73;11.30;;;;;;;2.17;79.63;101516.16;4980432;28;20148;-60
2020/12/26 10:26:05;;;;;;;18.00;9.68;;;;;;;2.21;79.23;101504.00;4992016;28;20065;-57
2020/12/26 10:28:33;;;;;;;18.80;9.50;;;;;;;1.96;80.06;101504.22;4992577;28;20587;-61
2020/12/26 10:31:00;;;;;;;17.98;9.55;;;;;;;1.82;80.53;101502.63;4992874;28;20050;-62
2020/12/26 10:33:27;;;;;;;24.40;11.10;;;;;;;1.76;80.60;101500.94;4998883;28;20046;-58
2020/12/26 10:35:54;;;;;;;18.83;9.98;;;;;;;1.88;80.80;101502.56;4989281;28;20145;-57
2020/12/26 10:38:21;;;;;;;20.02;10.25;;;;;;;1.93;80.14;101504.22;4987987;28;20561;-59
2020/12/26 10:40:47;;;;;;;22.85;9.73;;;;;;;2.07;79.37;101511.03;4997923;28;20058;-61
2020/12/26 10:43:15;;;;;;;20.42;9.88;;;;;;;2.08;79.76;101505.00;4992274;28;20231;-58
2020/12/26 10:45:41;;;;;;;18.77;9.65;;;;;;;1.55;82.05;101506.31;4972896;28;20495;-59
2020/12/26 10:48:08;;;;;;;18.38;9.95;;;;;;;1.52;82.86;101499.41;4989848;28;20054;-59
2020/12/26 10:50:35;;;;;;;20.92;10.82;;;;;;;1.50;83.96;101496.81;4993820;28;20145;-59
2020/12/26 10:53:02;;;;;;;20.85;11.23;;;;;;;1.60;84.08;101489.81;4993576;28;20061;-58
2020/12/26 10:55:29;;;;;;;23.00;10.65;;;;;;;1.52;84.32;101487.28;4993210;28;20054;-57
2020/12/26 10:57:55;;;;;;;24.80;11.57;;;;;;;1.81;83.83;101482.75;4982043;28;20100;-58
2020/12/26 11:00:22;;;;;;;20.05;11.57;;;;;;;1.97;83.32;101485.16;4995781;28;20451;-58
2020/12/26 11:02:50;;;;;;;24.40;12.45;;;;;;;1.69;83.96;101483.69;4995151;28;20057;-60
2020/12/26 11:05:17;;;;;;;23.58;11.60;;;;;;;1.75;84.14;101483.63;4993706;28;20605;-60
2020/12/26 11:07:43;;;;;;;24.50;11.75;;;;;;;1.73;84.38;101477.59;4997947;28;20046;-61
2020/12/26 11:10:10;;;;;;;19.52;11.82;;;;;;;1.73;84.18;101481.06;5000434;28;20515;-61
2020/12/26 11:12:37;;;;;;;22.10;12.65;;;;;;;1.95;83.65;101483.47;4982792;28;20106;-60
2020/12/26 11:15:04;;;;;;;27.70;12.13;;;;;;;1.99;83.72;101477.38;5005583;28;20058;-59
2020/12/26 11:17:30;;;;;;;27.98;13.50;;;;;;;1.96;84.22;101477.38;4992353;28;20046;-61
2020/12/26 11:19:59;;;;;;;20.40;12.02;;;;;;;1.68;85.73;101482.84;4992472;28;20134;-59
2020/12/26 11:22:25;;;;;;;25.42;13.02;;;;;;;1.61;87.39;101482.91;4992997;28;20049;-57
2020/12/26 11:24:52;;;;;;;27.42;13.20;;;;;;;1.49;88.11;101471.75;4987160;28;20511;-59
2020/12/26 11:27:19;;;;;;;27.23;12.63;;;;;;;1.45;88.07;101466.59;4993835;28;20534;-56
2020/12/26 11:29:46;;;;;;;28.98;15.18;;;;;;;1.45;88.48;101461.41;4995866;28;20401;-60
2020/12/26 11:32:12;;;;;;;22.00;13.43;;;;;;;1.40;89.21;101464.03;5004378;28;20053;-60
2020/12/26 11:34:39;;;;;;;28.17;12.95;;;;;;;1.38;89.37;101472.69;4996331;28;20170;-60